createdAt,value
2022-11-16T00:02:17.743Z,5.53
2022-11-16T00:04:50.004Z,3.92
2022-11-16T00:07:23.115Z,4.45
2022-11-16T00:09:58.770Z,2.25
2022-11-16T00:12:28.845Z,5.47
2022-11-16T00:14:56.730Z,4.22
2022-11-16T00:17:27.684Z,5.35
2022-11-16T00:19:54.652Z,4.50
2022-11-16T00:22:24.483Z,4.38
2022-11-16T00:24:57.841Z,3.95
2022-11-16T00:27:24.734Z,3.78
2022-11-16T00:30:00.038Z,4.07
2022-11-16T00:32:30.387Z,3.75
2022-11-16T00:35:03.290Z,4.18
2022-11-16T00:37:30.531Z,3.80
2022-11-16T00:40:00.559Z,4.78
2022-11-16T00:42:31.079Z,3.28
2022-11-16T00:45:03.689Z,3.40
2022-11-16T00:47:33.803Z,3.05
2022-11-16T00:50:03.769Z,3.63
2022-11-16T00:52:36.764Z,2.65
2022-11-16T00:55:09.808Z,3.95
2022-11-16T00:57:36.687Z,3.08
2022-11-16T01:00:12.676Z,3.70
2022-11-16T01:02:49.083Z,3.65
2022-11-16T01:05:16.823Z,3.22
2022-11-16T01:07:46.885Z,4.35
2022-11-16T01:10:19.717Z,2.97
2022-11-16T01:12:50.848Z,4.25
2022-11-16T01:15:21.443Z,2.55
2022-11-16T01:17:53.886Z,6.25
2022-11-16T01:20:22.275Z,2.55
2022-11-16T01:22:54.876Z,4.70
2022-11-16T01:25:24.846Z,8.30
2022-11-16T01:28:01.455Z,4.70
2022-11-16T01:30:34.166Z,4.00
2022-11-16T01:33:10.049Z,6.90
2022-11-16T01:35:45.978Z,4.57
2022-11-16T01:38:30.034Z,4.13
2022-11-16T01:41:00.115Z,5.38
2022-11-16T01:43:29.855Z,3.55
2022-11-16T01:45:59.813Z,6.28
2022-11-16T01:48:30.960Z,4.13
2022-11-16T01:51:04.004Z,4.70
2022-11-16T01:53:34.157Z,3.20
2022-11-16T01:56:01.134Z,3.03
2022-11-16T01:58:31.402Z,5.90
2022-11-16T02:01:00.870Z,3.97
2022-11-16T02:03:29.141Z,5.40
2022-11-16T02:06:16.329Z,5.28
2022-11-16T02:09:15.370Z,5.22
2022-11-16T02:11:53.712Z,3.42
2022-11-16T02:14:32.482Z,1.25
2022-11-16T02:17:11.562Z,5.13
2022-11-16T02:20:07.400Z,4.15
2022-11-16T02:22:40.209Z,3.65
2022-11-16T02:25:12.609Z,4.45
2022-11-16T02:27:42.881Z,5.05
2022-11-16T02:30:16.156Z,3.53
2022-11-16T02:32:54.563Z,4.55
2022-11-16T02:35:27.679Z,4.03
2022-11-16T02:38:00.308Z,4.97
2022-11-16T02:40:33.390Z,5.18
2022-11-16T02:43:11.610Z,3.92
2022-11-16T02:45:44.192Z,2.90
2022-11-16T02:48:16.603Z,4.35
2022-11-16T02:50:44.163Z,6.05
2022-11-16T02:53:14.658Z,3.65
2022-11-16T02:55:45.390Z,3.33
2022-11-16T02:58:17.477Z,4.22
2022-11-16T03:00:49.362Z,3.38
2022-11-16T03:03:29.013Z,3.72
2022-11-16T03:06:05.071Z,4.22
2022-11-16T03:08:34.747Z,4.82
2022-11-16T03:11:25.000Z,4.50
2022-11-16T03:13:55.085Z,5.57
2022-11-16T03:16:31.728Z,4.20
2022-11-16T03:19:07.283Z,3.92
2022-11-16T03:21:46.322Z,5.15
2022-11-16T03:24:13.963Z,4.53
2022-11-16T03:26:43.837Z,5.25
2022-11-16T03:29:31.137Z,4.70
2022-11-16T03:32:01.802Z,3.88
2022-11-16T03:34:34.920Z,3.95
2022-11-16T03:37:17.472Z,4.25
2022-11-16T03:39:48.249Z,4.18
2022-11-16T03:42:19.567Z,4.30
2022-11-16T03:44:50.568Z,3.72
2022-11-16T03:47:17.649Z,4.97
2022-11-16T03:49:51.648Z,5.63
2022-11-16T03:52:22.088Z,6.35
2022-11-16T03:54:52.235Z,3.38
2022-11-16T03:57:26.693Z,4.93
2022-11-16T03:59:53.570Z,3.78
2022-11-16T04:02:20.927Z,5.00
2022-11-16T04:05:06.440Z,3.88
2022-11-16T04:07:52.008Z,4.18
2022-11-16T04:10:37.528Z,3.75
2022-11-16T04:13:23.130Z,4.65
2022-11-16T04:16:08.220Z,3.65
2022-11-16T04:18:56.036Z,3.50
2022-11-16T04:21:44.145Z,4.60
2022-11-16T04:24:22.641Z,2.83
2022-11-16T04:27:15.851Z,3.78
2022-11-16T04:29:48.772Z,4.13
2022-11-16T04:32:34.401Z,5.30
2022-11-16T04:35:19.987Z,3.42
2022-11-16T04:37:53.698Z,5.07
2022-11-16T04:40:29.688Z,4.43
2022-11-16T04:43:03.800Z,3.67
2022-11-16T04:45:49.579Z,4.35
2022-11-16T04:48:17.399Z,7.28
2022-11-16T04:50:50.607Z,2.53
2022-11-16T04:53:22.768Z,5.38
2022-11-16T04:55:52.799Z,3.03
2022-11-16T04:58:22.175Z,3.65
2022-11-16T05:00:56.967Z,4.03
2022-11-16T05:03:23.918Z,3.33
2022-11-16T05:05:53.968Z,3.05
2022-11-16T05:08:22.967Z,6.03
2022-11-16T05:10:56.212Z,3.13
2022-11-16T05:13:26.176Z,4.60
2022-11-16T05:15:53.201Z,3.80
2022-11-16T05:18:23.212Z,5.47
2022-11-16T05:21:06.576Z,4.68
2022-11-16T05:23:52.218Z,4.10
2022-11-16T05:26:22.220Z,4.18
2022-11-16T05:28:51.290Z,4.35
2022-11-16T05:31:23.606Z,4.82
2022-11-16T05:33:50.451Z,5.13
2022-11-16T05:36:22.562Z,4.93
2022-11-16T05:38:52.735Z,4.05
2022-11-16T05:41:22.959Z,4.25
2022-11-16T05:43:49.736Z,2.95
2022-11-16T05:46:17.127Z,4.63
2022-11-16T05:48:47.305Z,4.22
2022-11-16T05:51:14.123Z,4.32
2022-11-16T05:53:49.545Z,4.38
2022-11-16T05:56:16.584Z,4.60
2022-11-16T05:58:56.077Z,2.30
2022-11-16T06:01:31.978Z,5.00
2022-11-16T06:04:02.120Z,4.88
2022-11-16T06:06:29.405Z,4.97
2022-11-16T06:09:02.469Z,3.85
2022-11-16T06:11:36.224Z,5.22
2022-11-16T06:14:04.093Z,4.40
2022-11-16T06:16:31.409Z,5.97
2022-11-16T06:19:02.934Z,5.32
2022-11-16T06:21:30.295Z,8.45
2022-11-16T06:24:03.573Z,4.70
2022-11-16T06:26:36.371Z,6.18
2022-11-16T06:29:04.116Z,4.47
2022-11-16T06:31:33.673Z,5.35
2022-11-16T06:34:04.290Z,3.03
2022-11-16T06:36:31.131Z,3.75
2022-11-16T06:39:06.909Z,5.47
2022-11-16T06:41:41.190Z,4.90
2022-11-16T06:44:14.428Z,4.20
2022-11-16T06:46:41.842Z,4.95
2022-11-16T06:49:12.129Z,4.93
2022-11-16T06:51:43.850Z,4.20
2022-11-16T06:54:10.656Z,5.57
2022-11-16T06:56:40.486Z,4.25
2022-11-16T06:59:10.732Z,2.92
2022-11-16T07:01:38.106Z,4.50
2022-11-16T07:04:05.436Z,4.78
2022-11-16T07:06:37.935Z,4.68
2022-11-16T07:09:11.120Z,4.30
2022-11-16T07:11:44.203Z,4.38
2022-11-16T07:14:12.058Z,2.20
2022-11-16T07:16:42.044Z,4.47
2022-11-16T07:19:13.270Z,3.17
2022-11-16T07:21:40.221Z,3.80
2022-11-16T07:24:10.176Z,3.67
2022-11-16T07:26:43.248Z,3.85
2022-11-16T07:29:11.510Z,3.50
2022-11-16T07:31:44.094Z,3.22
2022-11-16T07:34:19.812Z,2.40
2022-11-16T07:36:50.438Z,5.88
2022-11-16T07:39:22.396Z,4.15
2022-11-16T07:41:53.940Z,3.08
2022-11-16T07:44:24.364Z,5.20
2022-11-16T07:46:53.992Z,4.43
2022-11-16T07:49:24.070Z,3.95
2022-11-16T07:51:53.978Z,3.70
2022-11-16T07:54:21.257Z,3.92
2022-11-16T07:56:51.492Z,3.15
2022-11-16T07:59:21.574Z,5.22
2022-11-16T08:01:51.705Z,2.88
2022-11-16T08:04:21.305Z,2.45
2022-11-16T08:06:53.395Z,4.13
2022-11-16T08:09:23.901Z,3.22
2022-11-16T08:11:53.635Z,4.78
2022-11-16T08:14:26.107Z,4.60
2022-11-16T08:16:56.045Z,3.85
2022-11-16T08:19:22.970Z,3.28
2022-11-16T08:21:56.108Z,4.03
2022-11-16T08:24:23.094Z,5.20
2022-11-16T08:26:54.476Z,4.70
2022-11-16T08:29:21.688Z,3.28
2022-11-16T08:31:51.480Z,2.83
2022-11-16T08:34:21.590Z,4.20
2022-11-16T08:36:48.565Z,2.25
2022-11-16T08:39:18.579Z,3.33
2022-11-16T08:41:50.730Z,5.05
2022-11-16T08:44:23.349Z,4.97
2022-11-16T08:46:52.881Z,3.92
2022-11-16T08:49:19.674Z,5.22
2022-11-16T08:51:49.777Z,4.32
2022-11-16T08:54:16.679Z,3.72
2022-11-16T08:56:49.875Z,3.28
2022-11-16T08:59:20.366Z,2.92
2022-11-16T09:01:53.082Z,3.00
2022-11-16T09:04:23.609Z,4.15
2022-11-16T09:06:53.129Z,5.20
2022-11-16T09:09:23.645Z,5.85
2022-11-16T09:11:54.170Z,3.83
2022-11-16T09:14:23.911Z,3.08
2022-11-16T09:16:56.841Z,5.50
2022-11-16T09:19:23.843Z,4.50
2022-11-16T09:21:56.521Z,2.90
2022-11-16T09:24:29.029Z,4.90
2022-11-16T09:26:57.901Z,2.97
2022-11-16T09:29:28.027Z,2.97
2022-11-16T09:31:55.827Z,4.43
2022-11-16T09:34:29.077Z,3.53
2022-11-16T09:37:02.867Z,4.57
2022-11-16T09:39:33.334Z,5.20
2022-11-16T09:42:18.388Z,3.33
2022-11-16T09:45:02.126Z,2.88
2022-11-16T09:47:49.680Z,2.38
2022-11-16T09:50:34.690Z,2.10
2022-11-16T09:53:18.702Z,2.92
2022-11-16T09:55:55.211Z,4.03
2022-11-16T09:58:31.705Z,2.53
2022-11-16T10:01:04.701Z,3.30
2022-11-16T10:03:36.717Z,3.22
2022-11-16T10:06:12.039Z,4.20
2022-11-16T10:08:50.431Z,2.33
2022-11-16T10:11:26.846Z,3.63
2022-11-16T10:14:08.890Z,4.32
2022-11-16T10:16:48.731Z,2.95
2022-11-16T10:19:34.353Z,3.33
2022-11-16T10:22:13.443Z,4.97
2022-11-16T10:24:56.131Z,4.43
2022-11-16T10:27:35.773Z,3.65
2022-11-16T10:30:11.481Z,4.25
2022-11-16T10:33:02.149Z,2.67
2022-11-16T10:35:30.041Z,4.05
2022-11-16T10:37:59.811Z,2.80
2022-11-16T10:40:29.639Z,2.75
2022-11-16T10:43:14.904Z,4.20
2022-11-16T10:45:45.253Z,2.05
2022-11-16T10:48:18.394Z,4.10
2022-11-16T10:50:55.015Z,3.00
2022-11-16T10:53:38.409Z,2.92
2022-11-16T10:56:21.931Z,5.63
2022-11-16T10:58:52.749Z,3.55
2022-11-16T11:01:40.048Z,2.58
2022-11-16T11:04:16.703Z,3.47
2022-11-16T11:06:47.949Z,4.00
2022-11-16T11:09:32.487Z,2.33
2022-11-16T11:12:20.459Z,4.65
2022-11-16T11:15:06.258Z,3.22
2022-11-16T11:17:37.048Z,3.47
2022-11-16T11:20:08.289Z,2.58
2022-11-16T11:22:45.414Z,3.05
2022-11-16T11:25:30.843Z,3.03
2022-11-16T11:28:16.926Z,3.45
2022-11-16T11:31:03.154Z,3.67
2022-11-16T11:33:34.722Z,1.90
2022-11-16T11:36:09.938Z,2.40
2022-11-16T11:38:58.278Z,3.63
2022-11-16T11:41:28.933Z,2.75
2022-11-16T11:44:13.783Z,2.33
2022-11-16T11:49:46.789Z,2.95
2022-11-16T11:52:17.561Z,2.83
2022-11-16T11:54:48.716Z,5.97
2022-11-16T11:57:26.934Z,3.42
2022-11-16T11:59:58.898Z,3.05
2022-11-16T12:02:53.165Z,1.65
2022-11-16T12:05:35.698Z,3.05
2022-11-16T12:08:17.773Z,2.88
2022-11-16T12:10:50.619Z,2.47
2022-11-16T12:13:23.923Z,4.20
2022-11-16T12:16:08.928Z,3.50
2022-11-16T12:18:56.838Z,4.40
2022-11-16T12:21:41.112Z,3.55
2022-11-16T12:24:16.938Z,2.63
2022-11-16T12:26:47.159Z,1.58
2022-11-16T12:29:26.040Z,2.22
2022-11-16T12:32:11.490Z,2.35
2022-11-16T12:34:46.046Z,2.33
2022-11-16T12:37:22.981Z,2.70
2022-11-16T12:39:56.450Z,4.10
2022-11-16T12:42:29.438Z,1.60
2022-11-16T12:45:05.169Z,2.30
2022-11-16T12:47:37.948Z,2.70
2022-11-16T12:50:21.806Z,3.15
2022-11-16T12:52:48.809Z,2.30
2022-11-16T12:55:34.388Z,2.88
2022-11-16T12:58:10.374Z,2.72
2022-11-16T13:00:49.918Z,3.83
2022-11-16T13:03:23.411Z,2.97
2022-11-16T13:06:01.640Z,3.35
2022-11-16T13:09:04.830Z,3.33
2022-11-16T13:11:46.336Z,3.20
2022-11-16T13:14:19.380Z,2.30
2022-11-16T13:16:46.969Z,4.25
2022-11-16T13:19:20.445Z,3.08
2022-11-16T13:22:03.760Z,4.25
2022-11-16T13:24:49.038Z,3.55
2022-11-16T13:27:22.234Z,2.67
2022-11-16T13:29:49.492Z,4.38
2022-11-16T13:32:35.009Z,2.53
2022-11-16T13:35:09.224Z,2.75
2022-11-16T13:37:42.531Z,4.03
2022-11-16T13:40:15.197Z,2.95
2022-11-16T13:42:59.004Z,3.83
2022-11-16T13:45:34.410Z,3.25
2022-11-16T13:48:07.458Z,2.45
2022-11-16T13:50:38.141Z,2.92
2022-11-16T13:56:02.236Z,3.58
2022-11-16T13:58:33.872Z,3.40
2022-11-16T14:01:07.800Z,3.20
2022-11-16T14:03:44.609Z,4.70
2022-11-16T14:06:20.561Z,3.28
2022-11-16T14:08:54.765Z,3.13
2022-11-16T14:11:37.923Z,2.30
2022-11-16T14:14:27.059Z,4.25
2022-11-16T14:16:57.507Z,6.07
2022-11-16T14:19:43.080Z,3.25
2022-11-16T14:22:20.769Z,4.40
2022-11-16T14:24:54.194Z,3.08
2022-11-16T14:27:30.584Z,4.60
2022-11-16T14:30:07.651Z,3.63
2022-11-16T14:32:42.436Z,7.30
2022-11-16T14:35:28.643Z,2.75
2022-11-16T14:38:05.113Z,1.55
2022-11-16T14:40:39.193Z,2.55
2022-11-16T14:43:22.846Z,2.33
2022-11-16T14:45:57.931Z,3.30
2022-11-16T14:48:28.477Z,4.72
2022-11-16T14:51:01.487Z,4.85
2022-11-16T14:53:32.130Z,4.05
2022-11-16T14:56:31.533Z,2.47
2022-11-16T14:59:04.002Z,2.42
2022-11-16T15:01:34.252Z,4.47
2022-11-16T15:04:08.659Z,3.97
2022-11-16T15:06:54.180Z,4.82
2022-11-16T15:09:34.780Z,2.85
2022-11-16T15:12:21.211Z,7.13
2022-11-16T15:14:56.704Z,3.53
2022-11-16T15:17:33.228Z,3.33
2022-11-16T15:20:18.076Z,2.15
2022-11-16T15:22:51.421Z,3.33
2022-11-16T15:25:34.676Z,3.03
2022-11-16T15:28:05.666Z,3.20
2022-11-16T15:30:34.681Z,2.63
2022-11-16T15:33:10.766Z,2.90
2022-11-16T15:35:45.284Z,3.90
2022-11-16T15:38:18.167Z,2.90
2022-11-16T15:40:50.930Z,3.65
2022-11-16T15:43:19.608Z,3.92
2022-11-16T15:45:47.489Z,5.78
2022-11-16T15:48:20.116Z,3.13
2022-11-16T15:51:05.284Z,2.22
2022-11-16T15:53:36.793Z,4.50
2022-11-16T15:56:09.507Z,2.95
2022-11-16T15:58:38.611Z,2.83
2022-11-16T16:01:06.557Z,3.33
2022-11-16T16:03:35.094Z,3.80
2022-11-16T16:06:06.164Z,3.25
2022-11-16T16:08:37.146Z,5.15
2022-11-16T16:11:26.789Z,3.40
2022-11-16T16:14:01.804Z,2.70
2022-11-16T16:16:38.878Z,3.35
2022-11-16T16:19:25.928Z,4.13
2022-11-16T16:21:56.678Z,3.30
2022-11-16T16:24:42.275Z,3.53
2022-11-16T16:27:14.679Z,2.17
2022-11-16T16:29:44.772Z,3.97
2022-11-16T16:32:13.538Z,4.18
2022-11-16T16:34:46.819Z,4.82
2022-11-16T16:37:19.834Z,4.85
2022-11-16T16:39:48.060Z,4.63
2022-11-16T16:42:19.609Z,5.18
2022-11-16T16:44:53.316Z,3.63
2022-11-16T16:47:27.969Z,4.80
2022-11-16T16:50:00.367Z,4.32
2022-11-16T16:52:28.050Z,5.28
2022-11-16T16:54:56.048Z,2.50
2022-11-16T16:57:23.883Z,4.25
2022-11-16T16:59:55.215Z,4.53
2022-11-16T17:02:27.993Z,3.42
2022-11-16T17:05:01.779Z,3.33
2022-11-16T17:07:29.837Z,3.38
2022-11-16T17:10:00.240Z,4.07
2022-11-16T17:12:30.929Z,3.83
2022-11-16T17:15:00.967Z,3.10
2022-11-16T17:17:27.923Z,4.90
2022-11-16T17:19:57.569Z,4.70
2022-11-16T17:22:24.580Z,3.78
2022-11-16T17:24:57.317Z,4.28
2022-11-16T17:27:24.233Z,4.00
2022-11-16T17:29:54.078Z,3.47
2022-11-16T17:32:26.854Z,3.40
2022-11-16T17:34:59.009Z,3.55
2022-11-16T17:37:31.717Z,3.65
2022-11-16T17:40:04.530Z,6.10
2022-11-16T17:42:38.550Z,4.38
2022-11-16T17:45:08.651Z,3.20
2022-11-16T17:47:39.397Z,5.75
2022-11-16T17:50:09.501Z,6.07
2022-11-16T17:52:39.596Z,4.88
2022-11-16T17:55:10.553Z,5.20
2022-11-16T17:57:40.592Z,5.82
2022-11-16T18:00:08.150Z,5.13
2022-11-16T18:02:38.566Z,4.10
2022-11-16T18:05:08.839Z,6.30
2022-11-16T18:07:44.870Z,3.92
2022-11-16T18:10:19.199Z,6.03
2022-11-16T18:12:46.500Z,6.38
2022-11-16T18:15:32.097Z,6.95
2022-11-16T18:18:04.134Z,7.00
2022-11-16T18:20:34.728Z,6.93
2022-11-16T18:23:23.594Z,5.20
2022-11-16T18:25:54.639Z,6.90
2022-11-16T18:28:27.728Z,6.28
2022-11-16T18:31:04.956Z,5.15
2022-11-16T18:33:35.490Z,8.27
2022-11-16T18:36:03.806Z,4.13
2022-11-16T18:38:31.049Z,7.30
2022-11-16T18:41:16.263Z,6.53
2022-11-16T18:43:48.929Z,7.47
2022-11-16T18:46:19.561Z,6.55
2022-11-16T18:48:49.055Z,6.50
2022-11-16T18:51:20.241Z,6.10
2022-11-16T18:53:50.596Z,6.85
2022-11-16T18:56:18.845Z,8.25
2022-11-16T18:58:52.349Z,6.85
2022-11-16T19:01:27.743Z,10.65
2022-11-16T19:03:58.206Z,8.35
2022-11-16T19:06:32.765Z,9.38
2022-11-16T19:09:05.197Z,9.30
2022-11-16T19:11:37.132Z,10.43
2022-11-16T19:14:09.044Z,7.45
2022-11-16T19:16:36.834Z,7.05
2022-11-16T19:19:04.115Z,8.90
2022-11-16T19:21:31.889Z,7.97
2022-11-16T19:23:58.931Z,10.23
2022-11-16T19:26:30.608Z,12.52
2022-11-16T19:28:59.849Z,10.48
2022-11-16T19:31:29.229Z,11.50
2022-11-16T19:34:05.875Z,11.48
2022-11-16T19:36:33.538Z,11.75
2022-11-16T19:39:00.798Z,15.85
2022-11-16T19:41:30.949Z,8.80
2022-11-16T19:44:02.118Z,11.43
2022-11-16T19:46:34.172Z,12.40
2022-11-16T19:49:03.272Z,9.05
2022-11-16T19:51:34.518Z,14.77
2022-11-16T19:54:05.779Z,16.73
2022-11-16T19:56:33.055Z,12.45
2022-11-16T19:59:02.977Z,10.50
2022-11-16T20:01:33.824Z,9.88
2022-11-16T20:04:07.633Z,9.80
2022-11-16T20:06:41.538Z,11.13
2022-11-16T20:09:12.657Z,9.95
2022-11-16T20:11:40.646Z,11.13
2022-11-16T20:14:15.336Z,12.70
2022-11-16T20:16:50.753Z,11.65
2022-11-16T20:19:19.294Z,8.98
2022-11-16T20:21:49.166Z,9.80
2022-11-16T20:24:18.729Z,7.35
2022-11-16T20:26:49.774Z,7.43
2022-11-16T20:29:18.809Z,11.10
2022-11-16T20:31:52.449Z,7.72
2022-11-16T20:34:26.244Z,8.10
2022-11-16T20:36:53.185Z,9.52
2022-11-16T20:39:26.531Z,8.43
2022-11-16T20:42:00.727Z,10.85
2022-11-16T20:44:31.562Z,9.23
2022-11-16T20:47:04.082Z,9.73
2022-11-16T20:49:34.053Z,8.02
2022-11-16T20:52:07.882Z,9.38
2022-11-16T20:54:34.693Z,6.63
2022-11-16T20:57:05.041Z,10.27
2022-11-16T20:59:32.326Z,10.43
2022-11-16T21:01:59.234Z,6.47
2022-11-16T21:04:31.635Z,9.38
2022-11-16T21:06:58.594Z,9.15
2022-11-16T21:09:28.808Z,9.90
2022-11-16T21:12:31.440Z,6.68
2022-11-16T21:15:03.710Z,13.70
2022-11-16T21:17:34.552Z,8.75
2022-11-16T21:20:26.207Z,8.50
2022-11-16T21:22:56.871Z,8.20
2022-11-16T21:25:27.138Z,7.05
2022-11-16T21:27:54.987Z,8.18
2022-11-16T21:30:25.119Z,8.68
2022-11-16T21:32:55.234Z,8.35
2022-11-16T21:35:27.717Z,9.33
2022-11-16T21:37:58.207Z,4.35
2022-11-16T21:40:29.161Z,6.68
2022-11-16T21:42:56.482Z,9.07
2022-11-16T21:45:26.110Z,6.32
2022-11-16T21:47:59.168Z,16.25
2022-11-16T21:50:31.712Z,6.20
2022-11-16T21:53:00.411Z,8.93
2022-11-16T21:55:31.029Z,7.93
2022-11-16T21:58:03.703Z,5.78
2022-11-16T22:00:37.165Z,6.97
2022-11-16T22:03:08.074Z,8.70
2022-11-16T22:05:53.099Z,6.13
2022-11-16T22:08:20.057Z,7.95
2022-11-16T22:10:51.193Z,9.75
2022-11-16T22:13:18.873Z,10.15
2022-11-16T22:15:49.337Z,10.48
2022-11-16T22:18:18.358Z,10.70
2022-11-16T22:20:53.887Z,10.68
2022-11-16T22:23:23.097Z,10.68
2022-11-16T22:25:54.238Z,9.85
2022-11-16T22:28:23.872Z,13.10
2022-11-16T22:30:53.732Z,9.48
2022-11-16T22:33:20.828Z,11.30
2022-11-16T22:35:53.524Z,10.18
2022-11-16T22:38:26.594Z,5.78
2022-11-16T22:41:00.088Z,8.55
2022-11-16T22:43:32.059Z,10.38
2022-11-16T22:46:03.160Z,9.38
2022-11-16T22:48:34.569Z,11.25
2022-11-16T22:51:21.763Z,8.32
2022-11-16T22:54:01.445Z,9.82
2022-11-16T22:56:32.449Z,9.38
2022-11-16T22:59:05.996Z,8.13
2022-11-16T23:01:42.919Z,14.93
2022-11-16T23:04:12.764Z,7.72
2022-11-16T23:06:39.648Z,13.25
2022-11-16T23:09:06.714Z,8.60
2022-11-16T23:11:52.299Z,12.88
2022-11-16T23:14:37.257Z,11.07
2022-11-16T23:17:04.859Z,12.10
2022-11-16T23:19:51.004Z,9.15
2022-11-16T23:22:37.375Z,9.07
2022-11-16T23:25:23.474Z,11.73
2022-11-16T23:28:03.140Z,6.70
2022-11-16T23:30:35.403Z,7.45
2022-11-16T23:33:08.378Z,8.68
2022-11-16T23:35:38.691Z,8.95
2022-11-16T23:38:13.090Z,10.80
2022-11-16T23:40:43.010Z,13.35
2022-11-16T23:43:28.827Z,9.48
2022-11-16T23:45:59.162Z,7.45
2022-11-16T23:48:26.754Z,10.57
2022-11-16T23:50:57.046Z,10.70
2022-11-16T23:53:27.820Z,10.88
2022-11-16T23:55:54.884Z,12.68
2022-11-16T23:58:24.794Z,15.82
